Dades meteomassalio
Diari Summary for Gener 2, 2018 Units:  English    Metric   Both
« Previous Day
Next Day »
Diari Semanal Mensual Anual Personalitzat
  Maxima: Minima: Mijana:
Temperatura: TemperatureC °F 5.0 °F 12.4 °F
Rosada: DewpointC °F 1.3 °F 6.5 °F
Humitat: Humidity % 49 % 68 %
Velocitat del vent: WindSpeedKMH mph 0.0 mph 24.4 mph
Racha vent: WindSpeedGustKMH mph - -
Vent:- - NW
Pressio: PressurehPa in 1027.7 in -
Pluja: 0.0 in    
Historical Graphs
 
 
Tabular Data for Gener 2, 2018
Time Temperature Dew Point Pressure Wind Wind Speed Wind Gust Humidity Rainfall Rate (Hourly) solar Conditions
TemperatureC °F DewpointC °F PressurehPa in Calm     Humidity % HourlyPrecipMM in SolarRadiationWatts/m^2 W/m2 Conditions
00:02 11.1 °F 5.0 °F 1030.0 in North 18.5 mph 18.5 mph 66 % 0.0 in 0.0 W/m2 CLR
00:07 11.1 °F 5.0 °F 1029.7 in North 18.5 mph 18.5 mph 66 % 0.0 in 0.0 W/m2 CLR
00:08 11.1 °F 5.0 °F 1029.7 in North 20.4 mph 20.4 mph 66 % 0.0 in 0.0 W/m2 CLR
00:13 11.7 °F 5.5 °F 1029.7 in North 16.7 mph 16.7 mph 66 % 0.0 in 0.0 W/m2 CLR
00:18 11.1 °F 5.2 °F 1029.7 in NNW 18.5 mph 18.5 mph 67 % 0.0 in 0.0 W/m2 CLR
00:23 11.1 °F 5.4 °F 1029.7 in North 16.1 mph 16.1 mph 68 % 0.0 in 0.0 W/m2 CLR
00:24 11.1 °F 5.4 °F 1029.7 in North 18.5 mph 18.5 mph 68 % 0.0 in 0.0 W/m2 CLR
00:27 10.6 °F 4.9 °F 1029.7 in North 16.7 mph 16.7 mph 68 % 0.0 in 0.0 W/m2 CLR
00:30 10.6 °F 4.9 °F 1029.7 in NNW 16.7 mph 16.7 mph 68 % 0.0 in 0.0 W/m2 CLR
00:35 10.6 °F 5.3 °F 1029.3 in North 18.5 mph 18.5 mph 70 % 0.0 in 0.0 W/m2 CLR
00:37 10.6 °F 5.3 °F 1029.3 in NNW 18.5 mph 18.5 mph 70 % 0.0 in 0.0 W/m2 CLR
00:40 10.0 °F 5.0 °F 1029.3 in North 18.5 mph 18.5 mph 71 % 0.0 in 0.0 W/m2 CLR
00:45 10.6 °F 5.7 °F 1029.7 in North 20.4 mph 20.4 mph 72 % 0.0 in 0.0 W/m2 CLR
00:47 10.6 °F 5.7 °F 1029.7 in NNE 25.9 mph 25.9 mph 72 % 0.0 in 0.0 W/m2 CLR
00:52 10.6 °F 5.9 °F 1029.7 in North 25.9 mph 25.9 mph 73 % 0.0 in 0.0 W/m2 CLR
00:57 10.6 °F 5.9 °F 1029.7 in North 20.4 mph 20.4 mph 73 % 0.0 in 0.0 W/m2 CLR
00:58 10.6 °F 5.9 °F 1029.7 in NNW 19.3 mph 19.3 mph 73 % 0.0 in 0.0 W/m2 CLR
01:00 10.6 °F 5.9 °F 1029.7 in North 27.8 mph 27.8 mph 73 % 0.0 in 0.0 W/m2 CLR
01:03 10.6 °F 6.1 °F 1029.7 in NNE 25.9 mph 25.9 mph 74 % 0.0 in 0.0 W/m2 CLR
01:07 10.6 °F 6.3 °F 1029.7 in North 24.1 mph 24.1 mph 75 % 0.0 in 0.0 W/m2 CLR
01:09 10.6 °F 6.3 °F 1029.7 in North 24.1 mph 24.1 mph 75 % 0.0 in 0.0 W/m2 CLR
01:13 10.6 °F 6.3 °F 1029.7 in North 24.1 mph 24.1 mph 75 % 0.0 in 0.0 W/m2 CLR
01:18 10.6 °F 6.5 °F 1029.7 in North 20.4 mph 20.4 mph 76 % 0.0 in 0.0 W/m2 CLR
01:19 10.6 °F 6.5 °F 1029.7 in North 20.4 mph 20.4 mph 76 % 0.0 in 0.0 W/m2 CLR
01:24 10.6 °F 6.7 °F 1029.7 in North 25.9 mph 25.9 mph 77 % 0.0 in 0.0 W/m2 CLR
01:26 10.6 °F 6.7 °F 1029.7 in North 24.1 mph 24.1 mph 77 % 0.0 in 0.0 W/m2 CLR
01:27 10.6 °F 6.7 °F 1029.7 in NNW 22.2 mph 22.2 mph 77 % 0.0 in 0.0 W/m2 CLR
01:32 10.6 °F 6.7 °F 1029.7 in NNW 27.8 mph 27.8 mph 77 % 0.0 in 0.0 W/m2 CLR
01:33 10.6 °F 6.7 °F 1029.7 in North 20.9 mph 20.9 mph 77 % 0.0 in 0.0 W/m2 CLR
01:37 10.6 °F 6.7 °F 1029.7 in North 20.4 mph 20.4 mph 77 % 0.0 in 0.0 W/m2 CLR
01:38 10.6 °F 6.7 °F 1029.7 in North 24.1 mph 24.1 mph 77 % 0.0 in 0.0 W/m2 CLR
01:43 10.6 °F 6.7 °F 1029.7 in North 18.5 mph 18.5 mph 77 % 0.0 in 0.0 W/m2 CLR
01:45 10.6 °F 6.9 °F 1029.7 in North 27.8 mph 27.8 mph 78 % 0.0 in 0.0 W/m2 CLR
01:47 10.6 °F 6.9 °F 1029.7 in North 25.9 mph 25.9 mph 78 % 0.0 in 0.0 W/m2 CLR
01:51 10.6 °F 6.9 °F 1029.7 in North 24.1 mph 24.1 mph 78 % 0.0 in 0.0 W/m2 CLR
01:56 10.6 °F 7.1 °F 1029.7 in North 33.3 mph 33.3 mph 79 % 0.0 in 0.0 W/m2 CLR
01:57 10.6 °F 7.1 °F 1029.7 in NNW 24.1 mph 24.1 mph 79 % 0.0 in 0.0 W/m2 CLR
02:02 10.6 °F 7.1 °F 1029.3 in North 25.9 mph 25.9 mph 79 % 0.0 in 0.0 W/m2 CLR
02:03 10.6 °F 7.1 °F 1029.3 in North 25.9 mph 25.9 mph 79 % 0.0 in 0.0 W/m2 CLR
02:05 10.6 °F 7.1 °F 1029.3 in North 20.4 mph 21.6 mph 79 % 0.0 in 0.0 W/m2 CLR
02:09 10.6 °F 7.1 °F 1029.3 in North 25.9 mph 25.9 mph 79 % 0.0 in 0.0 W/m2 CLR
02:11 10.6 °F 7.1 °F 1029.3 in North 22.2 mph 22.2 mph 79 % 0.0 in 0.0 W/m2 CLR
02:16 10.6 °F 7.1 °F 1029.3 in North 33.3 mph 33.3 mph 79 % 0.0 in 0.0 W/m2 CLR
02:21 10.6 °F 6.9 °F 1029.3 in North 33.3 mph 33.3 mph 78 % 0.0 in 0.0 W/m2 CLR
02:22 10.6 °F 6.9 °F 1029.3 in NNW 33.3 mph 33.3 mph 78 % 0.0 in 0.0 W/m2 CLR
02:23 10.6 °F 6.9 °F 1029.3 in North 29.6 mph 29.6 mph 78 % 0.0 in 0.0 W/m2 CLR
02:28 10.6 °F 6.9 °F 1029.3 in North 29.6 mph 29.6 mph 78 % 0.0 in 0.0 W/m2 CLR
02:33 10.6 °F 6.9 °F 1029.3 in NNW 33.3 mph 33.3 mph 78 % 0.0 in 0.0 W/m2 CLR
02:34 10.6 °F 6.9 °F 1029.3 in NNW 27.8 mph 27.8 mph 78 % 0.0 in 0.0 W/m2 CLR
02:38 10.6 °F 6.9 °F 1029.7 in North 31.5 mph 31.5 mph 78 % 0.0 in 0.0 W/m2 CLR
02:39 10.6 °F 6.9 °F 1029.7 in North 24.1 mph 24.1 mph 78 % 0.0 in 0.0 W/m2 CLR
02:44 10.6 °F 6.9 °F 1029.3 in North 27.8 mph 27.8 mph 78 % 0.0 in 0.0 W/m2 CLR
02:47 10.6 °F 6.9 °F 1029.3 in North 33.3 mph 33.3 mph 78 % 0.0 in 0.0 W/m2 CLR
02:48 10.6 °F 6.9 °F 1029.3 in North 33.3 mph 33.3 mph 78 % 0.0 in 0.0 W/m2 CLR
02:53 10.0 °F 6.3 °F 1029.7 in North 25.9 mph 25.9 mph 78 % 0.0 in 0.0 W/m2 CLR
02:58 10.0 °F 6.3 °F 1029.7 in NNW 33.3 mph 33.3 mph 78 % 0.0 in 0.0 W/m2 CLR
02:59 10.0 °F 6.3 °F 1029.7 in NNW 33.3 mph 33.3 mph 78 % 0.0 in 0.0 W/m2 CLR
03:04 10.0 °F 6.3 °F 1029.7 in North 29.6 mph 29.6 mph 78 % 0.0 in 0.0 W/m2 CLR
03:07 10.0 °F 6.5 °F 1029.3 in North 31.5 mph 31.5 mph 79 % 0.0 in 0.0 W/m2 CLR
03:10 10.0 °F 6.5 °F 1029.3 in NNW 31.5 mph 31.5 mph 79 % 0.0 in 0.0 W/m2 CLR
03:13 10.0 °F 6.5 °F 1029.7 in NNW 31.5 mph 31.5 mph 79 % 0.0 in 0.0 W/m2 CLR
03:15 10.0 °F 6.5 °F 1029.7 in NNW 27.8 mph 27.8 mph 79 % 0.0 in 0.0 W/m2 CLR
03:20 10.0 °F 6.5 °F 1029.7 in North 25.9 mph 25.9 mph 79 % 0.0 in 0.0 W/m2 CLR
03:21 10.0 °F 6.5 °F 1029.7 in NNW 25.9 mph 25.9 mph 79 % 0.0 in 0.0 W/m2 CLR
03:23 10.0 °F 6.7 °F 1029.7 in NNW 27.8 mph 27.8 mph 80 % 0.0 in 0.0 W/m2 CLR
03:27 10.0 °F 6.7 °F 1029.7 in North 22.5 mph 22.5 mph 80 % 0.0 in 0.0 W/m2 CLR
03:30 10.0 °F 6.7 °F 1029.3 in NNW 31.5 mph 31.5 mph 80 % 0.0 in 0.0 W/m2 CLR
03:32 10.0 °F 6.7 °F 1029.3 in NNW 29.6 mph 29.6 mph 80 % 0.0 in 0.0 W/m2 CLR
03:38 10.0 °F 6.7 °F 1029.7 in NNW 30.6 mph 30.6 mph 80 % 0.0 in 0.0 W/m2 CLR
03:43 10.0 °F 6.9 °F 1029.3 in North 29.6 mph 29.6 mph 81 % 0.0 in 0.0 W/m2 CLR
03:44 10.0 °F 6.9 °F 1029.3 in NNW 25.9 mph 25.9 mph 81 % 0.0 in 0.0 W/m2 CLR
03:49 10.0 °F 6.9 °F 1029.3 in NNW 27.8 mph 27.8 mph 81 % 0.0 in 0.0 W/m2 CLR
03:50 10.0 °F 6.9 °F 1029.3 in North 27.8 mph 27.8 mph 81 % 0.0 in 0.0 W/m2 CLR
03:55 10.0 °F 7.1 °F 1029.3 in NNW 27.8 mph 27.8 mph 82 % 0.0 in 0.0 W/m2 CLR
04:00 10.0 °F 7.1 °F 1029.3 in NNW 27.4 mph 27.4 mph 82 % 0.0 in 0.0 W/m2 CLR
04:01 10.0 °F 7.1 °F 1029.3 in NNW 32.2 mph 32.2 mph 82 % 0.0 in 0.0 W/m2 CLR
04:06 10.0 °F 7.1 °F 1029.3 in NNW 33.3 mph 33.3 mph 82 % 0.0 in 0.0 W/m2 CLR
04:07 10.0 °F 7.2 °F 1029.3 in NNW 38.6 mph 38.6 mph 83 % 0.0 in 0.0 W/m2 CLR
04:16 10.0 °F 7.2 °F 1029.3 in NNW 24.1 mph 24.1 mph 83 % 0.0 in 0.0 W/m2 CLR
04:20 10.0 °F 7.4 °F 1029.3 in NNW 37.0 mph 37.0 mph 84 % 0.0 in 0.0 W/m2 CLR
04:26 10.0 °F 7.4 °F 1029.3 in North 31.5 mph 31.5 mph 84 % 0.0 in 0.0 W/m2 CLR
04:27 10.0 °F 7.4 °F 1029.3 in North 24.1 mph 24.1 mph 84 % 0.0 in 0.0 W/m2 CLR
04:31 10.0 °F 7.4 °F 1029.3 in NNW 31.5 mph 31.5 mph 84 % 0.0 in 0.0 W/m2 CLR
04:42 10.0 °F 7.4 °F 1029.3 in North 25.9 mph 25.9 mph 84 % 0.0 in 0.0 W/m2 CLR
04:49 10.0 °F 7.4 °F 1029.0 in NNW 31.5 mph 31.5 mph 84 % 0.0 in 0.0 W/m2 CLR
04:54 10.0 °F 7.4 °F 1029.0 in NNW 18.5 mph 18.5 mph 84 % 0.0 in 0.0 W/m2 CLR
04:55 10.0 °F 7.4 °F 1029.0 in NNW 18.5 mph 18.5 mph 84 % 0.0 in 0.0 W/m2 CLR
05:00 10.0 °F 7.4 °F 1029.0 in NNW 29.6 mph 29.6 mph 84 % 0.0 in 0.0 W/m2 CLR
05:01 10.0 °F 7.6 °F 1029.0 in NNE 29.6 mph 29.6 mph 85 % 0.0 in 0.0 W/m2 CLR
05:02 10.0 °F 7.4 °F 1029.0 in North 27.8 mph 27.8 mph 84 % 0.0 in 0.0 W/m2 CLR
05:07 10.0 °F 7.6 °F 1029.0 in NNW 25.9 mph 25.9 mph 85 % 0.0 in 0.0 W/m2 CLR
05:10 10.0 °F 7.6 °F 1029.3 in North 24.1 mph 24.1 mph 85 % 0.0 in 0.0 W/m2 CLR
05:12 10.0 °F 7.6 °F 1029.3 in NNW 29.0 mph 29.0 mph 85 % 0.0 in 0.0 W/m2 CLR
05:17 10.0 °F 7.6 °F 1029.3 in NNW 31.5 mph 31.5 mph 85 % 0.0 in 0.0 W/m2 CLR
05:18 10.0 °F 7.6 °F 1029.0 in NNW 29.6 mph 29.6 mph 85 % 0.0 in 0.0 W/m2 CLR
05:20 10.0 °F 7.6 °F 1029.3 in NNW 29.6 mph 29.6 mph 85 % 0.0 in 0.0 W/m2 CLR
05:24 10.0 °F 7.6 °F 1029.0 in North 24.1 mph 24.1 mph 85 % 0.0 in 0.0 W/m2 CLR
05:28 10.0 °F 7.6 °F 1029.0 in NW 25.9 mph 25.9 mph 85 % 0.0 in 0.0 W/m2 CLR
05:31 10.0 °F 7.6 °F 1029.0 in NW 20.4 mph 20.4 mph 85 % 0.0 in 0.0 W/m2 CLR
05:36 10.0 °F 7.6 °F 1029.0 in NNW 25.9 mph 25.9 mph 85 % 0.0 in 0.0 W/m2 CLR
05:41 10.0 °F 7.6 °F 1029.0 in NNW 27.8 mph 27.8 mph 85 % 0.0 in 0.0 W/m2 CLR
05:43 10.0 °F 7.6 °F 1029.0 in North 20.4 mph 20.4 mph 85 % 0.0 in 0.0 W/m2 CLR
05:48 10.0 °F 7.6 °F 1029.0 in North 20.4 mph 20.4 mph 85 % 0.0 in 0.0 W/m2 CLR
05:49 10.0 °F 7.6 °F 1029.0 in North 20.9 mph 20.9 mph 85 % 0.0 in 0.0 W/m2 CLR
05:54 10.0 °F 7.6 °F 1029.0 in NNW 24.1 mph 24.1 mph 85 % 0.0 in 0.0 W/m2 CLR
06:05 10.0 °F 7.6 °F 1029.0 in NNW 13.0 mph 13.0 mph 85 % 0.0 in 0.0 W/m2 CLR
06:06 10.0 °F 7.8 °F 1029.0 in NNW 16.1 mph 16.1 mph 86 % 0.0 in 0.0 W/m2 CLR
06:10 10.0 °F 7.8 °F 1029.0 in NNW 18.5 mph 18.5 mph 86 % 0.0 in 0.0 W/m2 CLR
06:11 10.0 °F 7.8 °F 1029.0 in NNW 18.5 mph 18.5 mph 86 % 0.0 in 0.0 W/m2 CLR
06:16 10.0 °F 7.8 °F 1029.3 in North 14.8 mph 14.8 mph 86 % 0.0 in 0.0 W/m2 CLR
06:21 10.0 °F 7.8 °F 1029.0 in NW 13.0 mph 13.0 mph 86 % 0.0 in 0.0 W/m2 CLR
06:22 10.0 °F 7.8 °F 1029.0 in NW 13.0 mph 13.0 mph 86 % 0.0 in 0.0 W/m2 CLR
06:28 10.0 °F 7.8 °F 1029.0 in NNW 18.5 mph 18.5 mph 86 % 0.0 in 0.0 W/m2 CLR
06:29 10.0 °F 7.8 °F 1029.0 in NNW 18.5 mph 18.5 mph 86 % 0.0 in 0.0 W/m2 CLR
06:32 10.0 °F 7.8 °F 1029.0 in NW 14.8 mph 14.8 mph 86 % 0.0 in 0.0 W/m2 CLR
06:35 10.0 °F 7.8 °F 1029.0 in NW 18.5 mph 18.5 mph 86 % 0.0 in 0.0 W/m2 CLR
06:40 10.0 °F 7.8 °F 1029.0 in NW 11.3 mph 11.3 mph 86 % 0.0 in 0.0 W/m2 CLR
06:41 10.0 °F 7.8 °F 1029.0 in NW 13.0 mph 13.0 mph 86 % 0.0 in 0.0 W/m2 CLR
06:42 10.0 °F 7.8 °F 1029.0 in NW 13.0 mph 13.0 mph 86 % 0.0 in 0.0 W/m2 CLR
06:46 9.4 °F 7.2 °F 1029.0 in NW 11.1 mph 11.1 mph 86 % 0.0 in 0.0 W/m2 CLR
06:48 9.4 °F 7.2 °F 1028.7 in NW 8.0 mph 8.0 mph 86 % 0.0 in 0.0 W/m2 CLR
06:53 9.4 °F 7.2 °F 1029.0 in WNW 11.1 mph 11.1 mph 86 % 0.0 in 0.0 W/m2 CLR
06:54 9.4 °F 7.2 °F 1029.0 in NW 9.3 mph 9.3 mph 86 % 0.0 in 0.0 W/m2 CLR
06:59 9.4 °F 7.2 °F 1029.0 in Calm     86 % 0.0 in 0.0 W/m2 CLR
07:04 8.9 °F 6.7 °F 1029.0 in Calm     86 % 0.0 in 0.0 W/m2 CLR
07:09 8.9 °F 6.7 °F 1029.0 in Calm     86 % 0.0 in 0.0 W/m2 CLR
07:10 8.9 °F 6.7 °F 1029.0 in Calm     86 % 0.0 in 0.0 W/m2 CLR
07:15 8.3 °F 6.1 °F 1029.3 in Calm     86 % 0.0 in 0.0 W/m2 CLR
07:16 8.3 °F 6.1 °F 1029.3 in Calm     86 % 0.0 in 0.0 W/m2 CLR
07:21 8.3 °F 6.1 °F 1029.3 in Calm     86 % 0.0 in 0.0 W/m2 CLR
07:26 7.8 °F 5.6 °F 1029.3 in Calm     86 % 0.0 in 0.0 W/m2 CLR
07:31 7.2 °F 5.1 °F 1029.3 in Calm     86 % 0.0 in 0.0 W/m2 CLR
07:34 7.2 °F 5.2 °F 1029.3 in Calm     87 % 0.0 in 0.0 W/m2 CLR
07:39 6.7 °F 4.7 °F 1029.3 in Calm     87 % 0.0 in 0.0 W/m2 CLR
07:41 6.7 °F 4.7 °F 1029.3 in Calm     87 % 0.0 in 0.0 W/m2 CLR
07:45 6.7 °F 4.7 °F 1029.7 in Calm     87 % 0.0 in 0.0 W/m2 CLR
07:50 6.7 °F 4.5 °F 1029.7 in Calm     86 % 0.0 in 0.0 W/m2 CLR
07:55 6.1 °F 4.1 °F 1029.7 in Calm     87 % 0.0 in 0.0 W/m2 CLR
08:00 6.1 °F 4.3 °F 1029.7 in Calm     88 % 0.0 in 0.0 W/m2 CLR
08:01 6.1 °F 4.3 °F 1029.7 in Calm     88 % 0.0 in 0.0 W/m2 CLR
08:06 6.1 °F 4.4 °F 1029.7 in Calm     89 % 0.0 in 0.0 W/m2 CLR
08:09 6.1 °F 4.3 °F 1029.7 in Calm     88 % 0.0 in 0.0 W/m2 CLR
08:13 6.1 °F 4.4 °F 1029.7 in Calm     89 % 0.0 in 0.0 W/m2 CLR
08:15 5.6 °F 3.9 °F 1029.7 in Calm     89 % 0.0 in 0.0 W/m2 OVC
08:19 5.6 °F 3.7 °F 1029.7 in Calm     88 % 0.0 in 0.0 W/m2 OVC
08:24 5.6 °F 3.7 °F 1029.7 in Calm     88 % 0.0 in 0.0 W/m2 OVC
08:25 5.6 °F 3.7 °F 1029.7 in Calm     88 % 0.0 in 0.0 W/m2 OVC
08:30 5.6 °F 3.9 °F 1029.7 in Calm     89 % 0.0 in 0.0 W/m2 OVC
08:31 5.6 °F 3.9 °F 1029.7 in Calm     89 % 0.0 in 5.0 W/m2 OVC
08:36 5.6 °F 3.9 °F 1029.7 in Calm     89 % 0.0 in 5.0 W/m2 OVC
08:42 5.6 °F 3.6 °F 1029.7 in Calm     87 % 0.0 in 9.0 W/m2 BKN
08:43 5.6 °F 3.6 °F 1029.7 in Calm     87 % 0.0 in 9.0 W/m2 BKN
08:48 5.0 °F 2.7 °F 1029.7 in NW 18.5 mph 18.5 mph 85 % 0.0 in 11.0 W/m2 BKN
08:50 5.0 °F 2.3 °F 1030.0 in NW 16.1 mph 16.1 mph 83 % 0.0 in 12.0 W/m2 BKN
08:55 5.0 °F 1.8 °F 1030.0 in NW 13.0 mph 13.0 mph 80 % 0.0 in 16.0 W/m2 BKN
09:01 5.0 °F 1.7 °F 1029.7 in Calm     79 % 0.0 in 21.0 W/m2 BKN
09:06 5.0 °F 1.5 °F 1029.7 in Calm     78 % 0.0 in 25.0 W/m2 BKN
09:07 5.0 °F 1.5 °F 1029.7 in NW 9.7 mph 9.7 mph 78 % 0.0 in 26.0 W/m2 BKN
09:08 5.0 °F 1.3 °F 1029.7 in WNW 9.3 mph 9.3 mph 77 % 0.0 in 26.0 W/m2 BKN
09:12 5.6 °F 1.7 °F 1029.7 in WNW 16.1 mph 16.1 mph 76 % 0.0 in 30.0 W/m2 BKN
09:15 6.1 °F 2.0 °F 1029.7 in NW 16.7 mph 16.7 mph 75 % 0.0 in 33.0 W/m2 BKN
09:18 6.1 °F 2.0 °F 1029.7 in NW 11.3 mph 11.3 mph 75 % 0.0 in 35.0 W/m2 BKN
09:26 7.8 °F 3.4 °F 1030.0 in NW 9.3 mph 9.3 mph 74 % 0.0 in 39.0 W/m2 BKN
09:29 7.8 °F 3.4 °F 1030.0 in NW 11.1 mph 11.1 mph 74 % 0.0 in 51.0 W/m2 BKN
09:31 7.8 °F 3.2 °F 1030.0 in WNW 11.1 mph 11.1 mph 73 % 0.0 in 58.0 W/m2 BKN
09:36 7.8 °F 3.2 °F 1030.0 in NNW 12.9 mph 12.9 mph 73 % 0.0 in 56.0 W/m2 SCT
09:38 7.8 °F 3.2 °F 1030.0 in NW 13.0 mph 13.0 mph 73 % 0.0 in 62.0 W/m2 SCT
09:41 7.8 °F 3.1 °F 1030.0 in NW 8.0 mph 8.0 mph 72 % 0.0 in 79.0 W/m2 FEW
09:46 7.8 °F 3.1 °F 1030.0 in Calm     72 % 0.0 in 69.0 W/m2 FEW
09:52 8.3 °F 3.4 °F 1030.0 in NW 9.3 mph 9.3 mph 71 % 0.0 in 132.0 W/m2 CLR
09:57 8.3 °F 3.2 °F 1030.0 in WNW 16.7 mph 16.7 mph 70 % 0.0 in 105.0 W/m2 CLR
09:58 8.3 °F 3.2 °F 1030.0 in NNW 14.5 mph 14.5 mph 70 % 0.0 in 105.0 W/m2 CLR
10:01 8.3 °F 3.0 °F 1030.0 in NNW 13.0 mph 13.0 mph 69 % 0.0 in 163.0 W/m2 CLR
10:03 8.3 °F 3.0 °F 1030.0 in NNW 22.2 mph 22.2 mph 69 % 0.0 in 165.0 W/m2 CLR
10:08 10.0 °F 4.3 °F 1030.4 in NNW 14.8 mph 14.8 mph 68 % 0.0 in 144.0 W/m2 CLR
10:13 10.6 °F 4.7 °F 1030.4 in NNW 16.7 mph 16.7 mph 67 % 0.0 in 137.0 W/m2 CLR
10:14 10.6 °F 4.4 °F 1030.4 in NW 18.5 mph 18.5 mph 66 % 0.0 in 144.0 W/m2 CLR
10:19 11.1 °F 5.0 °F 1030.4 in NNW 18.5 mph 18.5 mph 66 % 0.0 in 137.0 W/m2 CLR
10:20 11.1 °F 5.0 °F 1030.4 in North 19.3 mph 19.3 mph 66 % 0.0 in 192.0 W/m2 CLR
10:24 11.7 °F 5.3 °F 1030.4 in NW 22.2 mph 22.2 mph 65 % 0.0 in 229.0 W/m2 CLR
10:25 11.7 °F 5.3 °F 1030.4 in NW 18.5 mph 18.5 mph 65 % 0.0 in 221.0 W/m2 CLR
10:34 12.2 °F 5.6 °F 1030.7 in NW 18.5 mph 18.5 mph 64 % 0.0 in 216.0 W/m2 CLR
10:37 12.2 °F 5.6 °F 1030.7 in NW 18.5 mph 18.5 mph 64 % 0.0 in 195.0 W/m2 CLR
10:40 12.2 °F 5.6 °F 1030.4 in NNW 16.1 mph 16.1 mph 64 % 0.0 in 183.0 W/m2 CLR
10:44 12.2 °F 5.6 °F 1030.4 in North 16.7 mph 16.7 mph 64 % 0.0 in 216.0 W/m2 CLR
10:48 12.2 °F 5.4 °F 1030.4 in NNW 16.7 mph 16.7 mph 63 % 0.0 in 257.0 W/m2 CLR
10:51 12.2 °F 5.4 °F 1030.4 in North 18.5 mph 18.5 mph 63 % 0.0 in 248.0 W/m2 CLR
10:53 12.8 °F 5.9 °F 1030.4 in NW 18.5 mph 18.5 mph 63 % 0.0 in 257.0 W/m2 CLR
10:58 12.8 °F 5.7 °F 1030.4 in NW 27.8 mph 27.8 mph 62 % 0.0 in 218.0 W/m2 CLR
10:59 12.8 °F 5.7 °F 1030.4 in NW 25.9 mph 25.9 mph 62 % 0.0 in 295.0 W/m2 CLR
11:04 12.8 °F 5.7 °F 1030.4 in NW 22.2 mph 22.2 mph 62 % 0.0 in 316.0 W/m2 CLR
11:05 12.8 °F 5.7 °F 1030.4 in NW 27.8 mph 27.8 mph 62 % 0.0 in 329.0 W/m2 CLR
11:10 13.3 °F 5.9 °F 1030.4 in North 20.4 mph 20.4 mph 61 % 0.0 in 341.0 W/m2 CLR
11:11 13.3 °F 5.9 °F 1030.4 in NNW 22.5 mph 23.7 mph 61 % 0.0 in 336.0 W/m2 CLR
11:13 13.3 °F 5.9 °F 1030.4 in WNW 27.8 mph 27.8 mph 61 % 0.0 in 350.0 W/m2 CLR
11:20 13.9 °F 6.2 °F 1030.0 in NNW 24.1 mph 24.8 mph 60 % 0.0 in 380.0 W/m2 CLR
11:22 13.9 °F 6.2 °F 1030.0 in NNW 37.0 mph 37.0 mph 60 % 0.0 in 399.0 W/m2 CLR
11:27 13.9 °F 6.0 °F 1030.0 in North 37.0 mph 37.0 mph 59 % 0.0 in 464.0 W/m2 CLR
11:28 13.9 °F 6.0 °F 1030.0 in NNW 33.3 mph 33.3 mph 59 % 0.0 in 480.0 W/m2 CLR
11:32 14.4 °F 6.3 °F 1030.0 in NW 31.5 mph 31.5 mph 58 % 0.0 in 464.0 W/m2 CLR
11:37 15.0 °F 6.6 °F 1030.0 in NNW 31.5 mph 31.5 mph 57 % 0.0 in 475.0 W/m2 CLR
11:39 15.0 °F 6.6 °F 1030.0 in NNW 30.6 mph 30.6 mph 57 % 0.0 in 497.0 W/m2 CLR
11:40 15.0 °F 6.6 °F 1030.0 in North 37.0 mph 37.0 mph 57 % 0.0 in 489.0 W/m2 CLR
11:45 15.0 °F 6.3 °F 1030.0 in NNW 37.0 mph 37.0 mph 56 % 0.0 in 406.0 W/m2 CLR
11:49 15.0 °F 6.3 °F 1030.0 in North 22.2 mph 22.2 mph 56 % 0.0 in 264.0 W/m2 CLR
11:51 15.0 °F 6.3 °F 1030.0 in NNW 33.3 mph 33.3 mph 56 % 0.0 in 329.0 W/m2 CLR
11:56 15.6 °F 6.6 °F 1029.7 in NW 35.2 mph 35.2 mph 55 % 0.0 in 369.0 W/m2 CLR
11:57 15.6 °F 6.8 °F 1030.0 in NW 35.2 mph 35.2 mph 56 % 0.0 in 362.0 W/m2 CLR
12:01 15.6 °F 6.6 °F 1030.0 in NW 31.5 mph 31.5 mph 55 % 0.0 in 378.0 W/m2 CLR
12:04 15.6 °F 6.6 °F 1030.0 in NW 31.5 mph 31.5 mph 55 % 0.0 in 475.0 W/m2 CLR
12:07 15.6 °F 6.6 °F 1029.7 in North 31.5 mph 31.5 mph 55 % 0.0 in 496.0 W/m2 CLR
12:10 16.1 °F 6.8 °F 1030.0 in NNW 31.5 mph 31.5 mph 54 % 0.0 in 501.0 W/m2 CLR
12:15 16.1 °F 6.5 °F 1030.0 in NNW 22.2 mph 22.2 mph 53 % 0.0 in 260.0 W/m2 CLR
12:16 16.1 °F 6.8 °F 1030.0 in NNW 27.4 mph 27.4 mph 54 % 0.0 in 311.0 W/m2 CLR
12:19 16.1 °F 6.8 °F 1029.7 in NNW 29.6 mph 29.6 mph 54 % 0.0 in 459.0 W/m2 CLR
12:21 16.1 °F 6.5 °F 1030.0 in NW 33.3 mph 33.3 mph 53 % 0.0 in 489.0 W/m2 CLR
12:24 16.1 °F 6.5 °F 1029.7 in NW 38.9 mph 38.9 mph 53 % 0.0 in 457.0 W/m2 CLR
12:26 16.1 °F 6.5 °F 1029.7 in NW 40.7 mph 40.7 mph 53 % 0.0 in 436.0 W/m2 CLR
12:35 16.1 °F 6.5 °F 1029.7 in NW 42.6 mph 42.6 mph 53 % 0.0 in 401.0 W/m2 CLR
12:37 16.7 °F 7.1 °F 1029.7 in North 42.6 mph 42.6 mph 53 % 0.0 in 461.0 W/m2 CLR
12:40 16.7 °F 7.1 °F 1029.7 in North 42.6 mph 42.6 mph 53 % 0.0 in 469.0 W/m2 CLR
12:43 16.7 °F 7.1 °F 1029.3 in North 37.0 mph 37.0 mph 53 % 0.0 in 418.0 W/m2 CLR
12:46 16.7 °F 6.8 °F 1029.3 in NNW 30.6 mph 30.6 mph 52 % 0.0 in 455.0 W/m2 CLR
12:48 16.7 °F 6.8 °F 1029.3 in NNW 37.0 mph 37.0 mph 52 % 0.0 in 459.0 W/m2 CLR
12:51 16.7 °F 6.8 °F 1029.3 in NW 42.6 mph 42.6 mph 52 % 0.0 in 459.0 W/m2 CLR
12:53 16.1 °F 6.2 °F 1029.3 in NNW 43.4 mph 43.4 mph 52 % 0.0 in 469.0 W/m2 CLR
12:57 16.7 °F 6.8 °F 1029.3 in North 33.3 mph 33.3 mph 52 % 0.0 in 461.0 W/m2 CLR
13:00 16.7 °F 6.8 °F 1029.3 in NNW 42.6 mph 42.6 mph 52 % 0.0 in 455.0 W/m2 CLR
13:05 16.7 °F 6.8 °F 1029.3 in NNW 38.9 mph 38.9 mph 52 % 0.0 in 367.0 W/m2 CLR
13:10 16.7 °F 6.8 °F 1029.3 in North 41.8 mph 41.8 mph 52 % 0.0 in 253.0 W/m2 CLR
13:11 17.2 °F 7.3 °F 1029.3 in NNW 46.3 mph 46.3 mph 52 % 0.0 in 223.0 W/m2 CLR
13:16 16.7 °F 6.8 °F 1029.0 in NNW 41.8 mph 41.8 mph 52 % 0.0 in 445.0 W/m2 CLR
13:21 16.7 °F 6.8 °F 1029.0 in North 32.2 mph 32.2 mph 52 % 0.0 in 418.0 W/m2 CLR
13:23 16.7 °F 6.8 °F 1029.0 in NW 31.5 mph 31.5 mph 52 % 0.0 in 418.0 W/m2 CLR
13:28 16.7 °F 6.5 °F 1028.7 in NNE 37.0 mph 37.0 mph 51 % 0.0 in 415.0 W/m2 CLR
13:34 17.2 °F 7.3 °F 1028.3 in NW 25.9 mph 25.9 mph 52 % 0.0 in 413.0 W/m2 CLR
13:39 17.2 °F 7.0 °F 1028.3 in NW 35.4 mph 35.4 mph 51 % 0.0 in 415.0 W/m2 CLR
13:40 17.2 °F 7.0 °F 1028.3 in NW 30.6 mph 30.6 mph 51 % 0.0 in 403.0 W/m2 CLR
13:45 17.2 °F 7.0 °F 1028.3 in NW 35.2 mph 35.2 mph 51 % 0.0 in 408.0 W/m2 CLR
13:46 17.2 °F 7.0 °F 1028.3 in NNW 33.3 mph 33.3 mph 51 % 0.0 in 408.0 W/m2 CLR
13:47 17.2 °F 6.7 °F 1028.3 in NNW 31.5 mph 31.5 mph 50 % 0.0 in 406.0 W/m2 CLR
13:51 17.2 °F 7.0 °F 1028.3 in NNW 33.3 mph 33.3 mph 51 % 0.0 in 404.0 W/m2 CLR
13:54 17.2 °F 6.7 °F 1028.3 in NW 31.5 mph 31.5 mph 50 % 0.0 in 373.0 W/m2 CLR
13:56 17.8 °F 7.2 °F 1028.7 in NW 35.2 mph 35.2 mph 50 % 0.0 in 390.0 W/m2 CLR
14:01 17.2 °F 6.7 °F 1028.3 in NNW 48.1 mph 48.1 mph 50 % 0.0 in 403.0 W/m2 CLR
14:05 17.2 °F 6.7 °F 1028.3 in NNW 44.4 mph 44.4 mph 50 % 0.0 in 397.0 W/m2 CLR
14:06 17.2 °F 6.7 °F 1028.3 in North 40.7 mph 40.7 mph 50 % 0.0 in 394.0 W/m2 CLR
14:10 17.8 °F 7.2 °F 1028.3 in NNW 44.4 mph 44.4 mph 50 % 0.0 in 392.0 W/m2 CLR
14:14 17.2 °F 6.7 °F 1028.3 in NNW 31.5 mph 31.5 mph 50 % 0.0 in 376.0 W/m2 CLR
14:20 17.8 °F 6.9 °F 1028.3 in North 44.4 mph 44.4 mph 49 % 0.0 in 399.0 W/m2 CLR
14:21 17.8 °F 7.2 °F 1028.0 in NNW 31.5 mph 31.5 mph 50 % 0.0 in 388.0 W/m2 CLR
14:25 17.8 °F 6.9 °F 1028.0 in North 38.6 mph 38.6 mph 49 % 0.0 in 374.0 W/m2 CLR
14:31 17.8 °F 6.9 °F 1028.0 in NW 37.0 mph 37.0 mph 49 % 0.0 in 172.0 W/m2 CLR
14:36 17.8 °F 6.9 °F 1028.3 in NW 38.9 mph 38.9 mph 49 % 0.0 in 323.0 W/m2 CLR
14:37 17.8 °F 6.9 °F 1028.0 in NNW 38.9 mph 38.9 mph 49 % 0.0 in 329.0 W/m2 CLR
14:42 17.8 °F 7.2 °F 1028.0 in North 30.6 mph 30.6 mph 50 % 0.0 in 353.0 W/m2 CLR
14:47 17.8 °F 6.9 °F 1028.0 in NNW 33.8 mph 33.8 mph 49 % 0.0 in 352.0 W/m2 CLR
14:48 17.8 °F 6.9 °F 1028.0 in North 38.9 mph 38.9 mph 49 % 0.0 in 355.0 W/m2 CLR
14:53 18.3 °F 7.4 °F 1028.0 in NNW 31.5 mph 31.5 mph 49 % 0.0 in 374.0 W/m2 CLR
14:58 18.3 °F 7.4 °F 1028.0 in North 35.2 mph 35.2 mph 49 % 0.0 in 385.0 W/m2 CLR
15:03 18.3 °F 7.4 °F 1028.0 in NW 38.9 mph 38.9 mph 49 % 0.0 in 339.0 W/m2 CLR
15:08 18.3 °F 7.4 °F 1028.0 in NNW 42.6 mph 42.6 mph 49 % 0.0 in 70.0 W/m2 CLR
15:10 17.8 °F 6.9 °F 1028.0 in North 42.6 mph 42.6 mph 49 % 0.0 in 65.0 W/m2 CLR
15:15 17.2 °F 6.7 °F 1027.7 in NW 35.2 mph 35.2 mph 50 % 0.0 in 69.0 W/m2 FEW
15:17 17.2 °F 7.0 °F 1027.7 in NNW 24.1 mph 24.1 mph 51 % 0.0 in 72.0 W/m2 FEW
15:19 17.2 °F 7.0 °F 1028.0 in NW 35.2 mph 35.2 mph 51 % 0.0 in 62.0 W/m2 FEW
15:22 16.7 °F 6.5 °F 1028.0 in NW 29.6 mph 29.6 mph 51 % 0.0 in 49.0 W/m2 SCT
15:25 16.7 °F 6.8 °F 1028.0 in NNW 27.4 mph 27.4 mph 52 % 0.0 in 58.0 W/m2 SCT
15:28 16.7 °F 6.8 °F 1028.0 in NNW 25.7 mph 25.7 mph 52 % 0.0 in 62.0 W/m2 SCT
15:34 16.7 °F 6.8 °F 1028.3 in NNW 42.6 mph 42.6 mph 52 % 0.0 in 49.0 W/m2 SCT
15:39 16.7 °F 6.8 °F 1028.3 in North 38.9 mph 38.9 mph 52 % 0.0 in 125.0 W/m2 SCT
15:40 16.7 °F 6.8 °F 1028.3 in NNW 42.6 mph 42.6 mph 52 % 0.0 in 125.0 W/m2 SCT
15:45 16.7 °F 6.8 °F 1028.7 in WNW 46.3 mph 46.3 mph 52 % 0.0 in 91.0 W/m2 FEW
15:46 16.7 °F 7.1 °F 1028.7 in NNW 45.1 mph 45.1 mph 53 % 0.0 in 93.0 W/m2 CLR
15:48 16.7 °F 7.1 °F 1028.7 in NNW 40.7 mph 40.7 mph 53 % 0.0 in 84.0 W/m2 CLR
15:52 16.7 °F 7.1 °F 1028.7 in NNW 46.3 mph 46.3 mph 53 % 0.0 in 114.0 W/m2 CLR
15:55 17.2 °F 7.6 °F 1028.7 in North 44.4 mph 44.4 mph 53 % 0.0 in 107.0 W/m2 CLR
16:01 16.7 °F 7.1 °F 1028.7 in North 45.1 mph 45.1 mph 53 % 0.0 in 113.0 W/m2 CLR
16:02 16.7 °F 7.1 °F 1028.7 in NNW 44.4 mph 44.4 mph 53 % 0.0 in 84.0 W/m2 CLR
16:08 16.7 °F 7.1 °F 1028.3 in NNW 35.2 mph 35.2 mph 53 % 0.0 in 60.0 W/m2 FEW
16:12 16.7 °F 7.1 °F 1028.7 in NW 27.8 mph 27.8 mph 53 % 0.0 in 88.0 W/m2 FEW
16:14 16.7 °F 7.1 °F 1028.7 in NW 42.6 mph 42.6 mph 53 % 0.0 in 84.0 W/m2 FEW
16:19 16.7 °F 7.3 °F 1028.7 in NNW 40.7 mph 40.7 mph 54 % 0.0 in 90.0 W/m2 FEW
16:20 16.1 °F 6.8 °F 1028.7 in North 40.7 mph 40.7 mph 54 % 0.0 in 63.0 W/m2 FEW
16:25 16.1 °F 6.8 °F 1028.7 in North 38.9 mph 38.9 mph 54 % 0.0 in 90.0 W/m2 FEW
16:27 16.1 °F 6.8 °F 1028.7 in NNW 37.0 mph 37.0 mph 54 % 0.0 in 100.0 W/m2 FEW
16:28 16.1 °F 6.8 °F 1028.7 in NW 31.5 mph 31.5 mph 54 % 0.0 in 107.0 W/m2 FEW
16:33 16.1 °F 6.8 °F 1028.7 in NNW 25.9 mph 25.9 mph 54 % 0.0 in 121.0 W/m2 FEW
16:38 16.1 °F 6.8 °F 1028.7 in NNW 31.5 mph 31.5 mph 54 % 0.0 in 35.0 W/m2 CLR
16:44 16.1 °F 7.1 °F 1028.7 in NNW 32.2 mph 32.2 mph 55 % 0.0 in 86.0 W/m2 CLR
16:48 16.1 °F 7.1 °F 1028.3 in NW 33.3 mph 33.3 mph 55 % 0.0 in 74.0 W/m2 FEW
16:51 16.1 °F 7.1 °F 1028.3 in NW 33.3 mph 33.3 mph 55 % 0.0 in 65.0 W/m2 FEW
16:53 16.1 °F 7.1 °F 1028.3 in NW 22.2 mph 22.2 mph 55 % 0.0 in 53.0 W/m2 SCT
16:58 16.1 °F 7.1 °F 1028.3 in NNW 27.8 mph 27.8 mph 55 % 0.0 in 44.0 W/m2 BKN
16:59 16.1 °F 7.1 °F 1028.3 in NW 27.8 mph 27.8 mph 55 % 0.0 in 44.0 W/m2 BKN
17:04 16.1 °F 7.1 °F 1028.3 in NNW 31.5 mph 31.5 mph 55 % 0.0 in 33.0 W/m2 BKN
17:06 16.1 °F 7.1 °F 1028.3 in North 24.1 mph 24.1 mph 55 % 0.0 in 32.0 W/m2 BKN
17:09 15.6 °F 6.8 °F 1028.3 in NNW 32.2 mph 32.2 mph 56 % 0.0 in 32.0 W/m2 BKN
17:14 15.6 °F 6.8 °F 1028.0 in North 46.3 mph 46.3 mph 56 % 0.0 in 21.0 W/m2 BKN
17:15 15.6 °F 6.8 °F 1028.3 in NNW 46.3 mph 46.3 mph 56 % 0.0 in 21.0 W/m2 BKN
17:20 15.6 °F 7.1 °F 1028.0 in North 38.9 mph 38.9 mph 57 % 0.0 in 16.0 W/m2 BKN
17:25 15.6 °F 7.1 °F 1028.0 in NW 22.5 mph 22.5 mph 57 % 0.0 in 14.0 W/m2 BKN
17:26 15.6 °F 7.1 °F 1028.3 in North 24.1 mph 24.1 mph 57 % 0.0 in 12.0 W/m2 BKN
17:31 15.6 °F 7.3 °F 1028.3 in NNW 24.1 mph 24.1 mph 58 % 0.0 in 11.0 W/m2 BKN
17:37 15.0 °F 6.8 °F 1028.3 in North 31.5 mph 31.5 mph 58 % 0.0 in 9.0 W/m2 BKN
17:42 15.0 °F 7.1 °F 1028.3 in North 24.1 mph 24.1 mph 59 % 0.0 in 5.0 W/m2 OVC
17:47 15.0 °F 7.1 °F 1028.3 in NW 27.8 mph 27.8 mph 59 % 0.0 in 0.0 W/m2 OVC
17:49 15.0 °F 7.1 °F 1028.3 in NW 20.4 mph 20.4 mph 59 % 0.0 in 0.0 W/m2 OVC
17:53 15.0 °F 7.1 °F 1028.3 in NNW 22.2 mph 22.2 mph 59 % 0.0 in 0.0 W/m2 OVC
17:54 15.0 °F 7.1 °F 1028.3 in NNW 27.8 mph 27.8 mph 59 % 0.0 in 0.0 W/m2 CLR
17:58 15.0 °F 7.3 °F 1028.3 in NNW 24.1 mph 24.1 mph 60 % 0.0 in 0.0 W/m2 CLR
18:03 15.0 °F 7.3 °F 1028.0 in NW 31.5 mph 31.5 mph 60 % 0.0 in 0.0 W/m2 CLR
18:04 15.0 °F 7.3 °F 1028.0 in NNW 31.5 mph 31.5 mph 60 % 0.0 in 0.0 W/m2 CLR
18:05 15.0 °F 7.3 °F 1028.3 in NW 31.5 mph 31.5 mph 60 % 0.0 in 0.0 W/m2 CLR
18:09 14.4 °F 6.8 °F 1028.0 in NW 24.1 mph 24.1 mph 60 % 0.0 in 0.0 W/m2 CLR
18:14 14.4 °F 7.0 °F 1028.0 in NW 22.2 mph 22.2 mph 61 % 0.0 in 0.0 W/m2 CLR
18:15 14.4 °F 7.0 °F 1028.0 in NNW 22.2 mph 22.2 mph 61 % 0.0 in 0.0 W/m2 CLR
18:20 14.4 °F 7.0 °F 1028.0 in NNW 22.2 mph 22.2 mph 61 % 0.0 in 0.0 W/m2 CLR
18:21 14.4 °F 7.0 °F 1028.0 in NW 22.2 mph 22.2 mph 61 % 0.0 in 0.0 W/m2 CLR
18:22 14.4 °F 7.0 °F 1028.0 in NW 20.9 mph 22.2 mph 61 % 0.0 in 0.0 W/m2 CLR
18:26 14.4 °F 7.0 °F 1028.0 in NW 27.4 mph 27.4 mph 61 % 0.0 in 0.0 W/m2 CLR
18:28 14.4 °F 7.0 °F 1028.0 in NW 27.8 mph 27.8 mph 61 % 0.0 in 0.0 W/m2 CLR
18:36 13.9 °F 6.5 °F 1028.3 in NNW 25.9 mph 25.9 mph 61 % 0.0 in 0.0 W/m2 CLR
18:37 13.9 °F 6.5 °F 1028.3 in NNW 18.5 mph 18.5 mph 61 % 0.0 in 0.0 W/m2 CLR
18:42 13.9 °F 6.7 °F 1028.3 in NW 22.2 mph 22.2 mph 62 % 0.0 in 0.0 W/m2 CLR
18:47 13.9 °F 6.7 °F 1028.3 in NW 20.9 mph 20.9 mph 62 % 0.0 in 0.0 W/m2 CLR
18:53 13.9 °F 6.7 °F 1028.3 in North 20.9 mph 20.9 mph 62 % 0.0 in 0.0 W/m2 CLR
18:58 13.9 °F 6.7 °F 1028.3 in NW 22.2 mph 22.2 mph 62 % 0.0 in 0.0 W/m2 CLR
19:02 13.9 °F 6.7 °F 1028.7 in NW 18.5 mph 18.5 mph 62 % 0.0 in 0.0 W/m2 CLR
19:03 13.9 °F 6.9 °F 1028.7 in NW 24.1 mph 24.1 mph 63 % 0.0 in 0.0 W/m2 CLR
19:08 13.9 °F 6.9 °F 1028.7 in NW 27.8 mph 27.8 mph 63 % 0.0 in 0.0 W/m2 CLR
19:09 13.9 °F 6.9 °F 1028.7 in NNW 25.9 mph 25.9 mph 63 % 0.0 in 0.0 W/m2 CLR
19:11 13.9 °F 6.9 °F 1028.3 in NW 20.4 mph 20.4 mph 63 % 0.0 in 0.0 W/m2 CLR
19:15 13.9 °F 6.9 °F 1028.3 in NNW 22.2 mph 22.2 mph 63 % 0.0 in 0.0 W/m2 CLR
19:20 13.9 °F 6.9 °F 1028.7 in NNW 33.3 mph 33.3 mph 63 % 0.0 in 0.0 W/m2 CLR
19:21 13.9 °F 6.9 °F 1028.7 in NNW 33.3 mph 33.3 mph 63 % 0.0 in 0.0 W/m2 CLR
19:26 13.9 °F 6.9 °F 1028.7 in NNW 29.6 mph 29.6 mph 63 % 0.0 in 0.0 W/m2 CLR
19:28 13.9 °F 6.9 °F 1028.7 in NW 27.8 mph 27.8 mph 63 % 0.0 in 0.0 W/m2 CLR
19:31 13.9 °F 6.9 °F 1028.7 in NW 31.5 mph 31.5 mph 63 % 0.0 in 0.0 W/m2 CLR
19:33 13.9 °F 6.9 °F 1029.0 in NW 29.6 mph 29.6 mph 63 % 0.0 in 0.0 W/m2 CLR
19:38 13.9 °F 6.9 °F 1029.0 in NW 31.5 mph 31.5 mph 63 % 0.0 in 0.0 W/m2 CLR
19:40 13.9 °F 6.9 °F 1029.0 in NW 27.8 mph 27.8 mph 63 % 0.0 in 0.0 W/m2 CLR
19:45 13.9 °F 7.2 °F 1029.0 in NNW 20.4 mph 20.4 mph 64 % 0.0 in 0.0 W/m2 CLR
19:50 13.9 °F 7.2 °F 1029.0 in NW 24.1 mph 24.1 mph 64 % 0.0 in 0.0 W/m2 CLR
19:52 13.9 °F 7.2 °F 1029.0 in NW 18.5 mph 18.5 mph 64 % 0.0 in 0.0 W/m2 CLR
19:57 13.3 °F 6.7 °F 1029.3 in NNW 18.5 mph 18.5 mph 64 % 0.0 in 0.0 W/m2 CLR
19:58 13.3 °F 6.7 °F 1029.3 in NW 14.8 mph 14.8 mph 64 % 0.0 in 0.0 W/m2 CLR
19:59 13.3 °F 6.7 °F 1029.3 in NW 18.5 mph 18.5 mph 64 % 0.0 in 0.0 W/m2 CLR
20:04 13.3 °F 6.9 °F 1029.3 in NW 18.5 mph 18.5 mph 65 % 0.0 in 0.0 W/m2 CLR
20:08 13.3 °F 6.9 °F 1029.3 in NNW 22.2 mph 22.2 mph 65 % 0.0 in 0.0 W/m2 CLR
20:09 13.3 °F 6.9 °F 1029.3 in NW 22.2 mph 22.2 mph 65 % 0.0 in 0.0 W/m2 CLR
20:14 13.3 °F 6.9 °F 1029.3 in NW 20.4 mph 20.4 mph 65 % 0.0 in 0.0 W/m2 CLR
20:15 13.3 °F 6.9 °F 1029.3 in NNW 20.4 mph 20.4 mph 65 % 0.0 in 0.0 W/m2 CLR
20:16 13.3 °F 6.9 °F 1029.3 in NW 22.2 mph 22.2 mph 65 % 0.0 in 0.0 W/m2 CLR
20:21 13.3 °F 6.9 °F 1029.7 in NW 31.5 mph 31.5 mph 65 % 0.0 in 0.0 W/m2 CLR
20:26 13.3 °F 6.9 °F 1029.7 in NNW 24.1 mph 24.1 mph 65 % 0.0 in 0.0 W/m2 CLR
20:31 13.3 °F 6.9 °F 1029.7 in NW 18.5 mph 18.5 mph 65 % 0.0 in 0.0 W/m2 CLR
20:33 13.3 °F 6.9 °F 1029.7 in NNW 18.5 mph 18.5 mph 65 % 0.0 in 0.0 W/m2 CLR
20:35 13.3 °F 6.9 °F 1029.7 in NW 29.0 mph 29.0 mph 65 % 0.0 in 0.0 W/m2 CLR
20:39 13.9 °F 7.4 °F 1029.7 in NW 24.1 mph 24.1 mph 65 % 0.0 in 0.0 W/m2 CLR
20:43 13.9 °F 7.6 °F 1029.7 in NNW 33.8 mph 33.8 mph 66 % 0.0 in 0.0 W/m2 CLR
20:46 13.9 °F 7.6 °F 1029.7 in NNW 29.6 mph 29.6 mph 66 % 0.0 in 0.0 W/m2 CLR
20:51 13.9 °F 7.6 °F 1029.7 in NW 18.5 mph 18.5 mph 66 % 0.0 in 0.0 W/m2 CLR
20:52 13.9 °F 7.4 °F 1029.7 in WNW 24.1 mph 24.1 mph 65 % 0.0 in 0.0 W/m2 CLR
20:57 13.9 °F 7.4 °F 1029.7 in NW 22.2 mph 22.2 mph 65 % 0.0 in 0.0 W/m2 CLR
21:02 13.9 °F 7.6 °F 1030.0 in North 24.1 mph 24.1 mph 66 % 0.0 in 0.0 W/m2 CLR
21:06 13.3 °F 7.1 °F 1030.0 in NW 24.1 mph 24.1 mph 66 % 0.0 in 0.0 W/m2 CLR
21:07 13.3 °F 7.1 °F 1030.0 in NW 25.9 mph 25.9 mph 66 % 0.0 in 0.0 W/m2 CLR
21:13 13.9 °F 7.6 °F 1030.0 in NNW 27.8 mph 27.8 mph 66 % 0.0 in 0.0 W/m2 CLR
21:17 13.9 °F 7.6 °F 1030.0 in NW 24.1 mph 24.1 mph 66 % 0.0 in 0.0 W/m2 CLR
21:20 13.9 °F 7.6 °F 1030.0 in NNW 25.9 mph 25.9 mph 66 % 0.0 in 0.0 W/m2 CLR
21:23 13.9 °F 7.6 °F 1030.0 in NW 20.4 mph 20.4 mph 66 % 0.0 in 0.0 W/m2 CLR
21:26 13.3 °F 7.1 °F 1030.0 in NW 18.5 mph 18.5 mph 66 % 0.0 in 0.0 W/m2 CLR
21:28 13.9 °F 7.6 °F 1030.0 in NW 18.5 mph 18.5 mph 66 % 0.0 in 0.0 W/m2 CLR
21:33 13.9 °F 7.6 °F 1030.0 in NNW 24.1 mph 24.1 mph 66 % 0.0 in 0.0 W/m2 CLR
21:38 13.9 °F 7.8 °F 1030.0 in NNW 20.9 mph 20.9 mph 67 % 0.0 in 0.0 W/m2 CLR
21:41 13.3 °F 7.3 °F 1030.0 in NW 22.2 mph 22.2 mph 67 % 0.0 in 0.0 W/m2 CLR
21:46 13.3 °F 7.3 °F 1030.0 in NNW 24.1 mph 24.1 mph 67 % 0.0 in 0.0 W/m2 CLR
21:47 13.3 °F 7.3 °F 1030.0 in NW 24.1 mph 24.1 mph 67 % 0.0 in 0.0 W/m2 CLR
21:51 13.3 °F 7.3 °F 1030.0 in NNW 25.9 mph 25.9 mph 67 % 0.0 in 0.0 W/m2 CLR
21:52 13.3 °F 7.3 °F 1030.0 in NW 25.9 mph 25.9 mph 67 % 0.0 in 0.0 W/m2 CLR
21:57 13.3 °F 7.3 °F 1030.0 in NW 22.5 mph 22.5 mph 67 % 0.0 in 0.0 W/m2 CLR
21:59 13.3 °F 7.3 °F 1030.0 in WNW 29.6 mph 29.6 mph 67 % 0.0 in 0.0 W/m2 CLR
22:07 13.3 °F 7.3 °F 1030.0 in NNW 25.9 mph 25.9 mph 67 % 0.0 in 0.0 W/m2 CLR
22:12 13.3 °F 7.3 °F 1030.0 in NW 18.5 mph 18.5 mph 67 % 0.0 in 0.0 W/m2 CLR
22:17 13.3 °F 7.6 °F 1030.0 in WNW 27.8 mph 27.8 mph 68 % 0.0 in 0.0 W/m2 CLR
22:23 13.3 °F 7.6 °F 1030.0 in NW 24.1 mph 24.1 mph 68 % 0.0 in 0.0 W/m2 CLR
22:28 12.8 °F 7.0 °F 1030.0 in WNW 18.5 mph 18.5 mph 68 % 0.0 in 0.0 W/m2 CLR
22:29 12.8 °F 7.0 °F 1030.0 in NNW 18.5 mph 18.5 mph 68 % 0.0 in 0.0 W/m2 CLR
22:33 12.8 °F 7.2 °F 1030.0 in NW 18.5 mph 18.5 mph 69 % 0.0 in 0.0 W/m2 CLR
22:38 12.8 °F 7.2 °F 1030.0 in NW 27.8 mph 27.8 mph 69 % 0.0 in 0.0 W/m2 CLR
22:39 12.2 °F 6.7 °F 1030.0 in WNW 22.2 mph 22.2 mph 69 % 0.0 in 0.0 W/m2 CLR
22:44 12.2 °F 6.7 °F 1030.0 in NNW 22.2 mph 22.2 mph 69 % 0.0 in 0.0 W/m2 CLR
22:49 12.2 °F 6.9 °F 1030.0 in NW 29.6 mph 29.6 mph 70 % 0.0 in 0.0 W/m2 CLR
22:50 12.2 °F 6.7 °F 1030.0 in NW 22.2 mph 22.2 mph 69 % 0.0 in 0.0 W/m2 CLR
22:55 12.8 °F 7.2 °F 1030.0 in NW 29.6 mph 29.6 mph 69 % 0.0 in 0.0 W/m2 CLR
22:56 12.8 °F 7.2 °F 1030.0 in NW 29.6 mph 29.6 mph 69 % 0.0 in 0.0 W/m2 CLR
22:58 12.8 °F 7.2 °F 1030.0 in NW 25.9 mph 25.9 mph 69 % 0.0 in 0.0 W/m2 CLR
23:03 12.8 °F 7.4 °F 1030.0 in NW 22.2 mph 22.2 mph 70 % 0.0 in 0.0 W/m2 CLR
23:04 12.8 °F 7.4 °F 1030.0 in NNW 27.8 mph 27.8 mph 70 % 0.0 in 0.0 W/m2 CLR
23:08 12.8 °F 7.4 °F 1030.0 in NNW 29.6 mph 29.6 mph 70 % 0.0 in 0.0 W/m2 CLR
23:10 12.8 °F 7.4 °F 1030.0 in NW 24.1 mph 24.1 mph 70 % 0.0 in 0.0 W/m2 CLR
23:15 12.8 °F 7.4 °F 1030.4 in NW 18.5 mph 18.5 mph 70 % 0.0 in 0.0 W/m2 CLR
23:16 12.8 °F 7.7 °F 1030.4 in NW 18.5 mph 18.5 mph 71 % 0.0 in 0.0 W/m2 CLR
23:19 12.8 °F 7.7 °F 1030.4 in NW 18.5 mph 18.5 mph 71 % 0.0 in 0.0 W/m2 CLR
23:24 12.8 °F 7.7 °F 1030.4 in NW 18.5 mph 18.5 mph 71 % 0.0 in 0.0 W/m2 CLR
23:29 12.2 °F 7.1 °F 1030.4 in NW 14.8 mph 14.8 mph 71 % 0.0 in 0.0 W/m2 CLR
23:34 12.2 °F 7.1 °F 1030.4 in NW 18.5 mph 18.5 mph 71 % 0.0 in 0.0 W/m2 CLR
23:36 12.2 °F 7.1 °F 1030.4 in NNW 19.3 mph 19.3 mph 71 % 0.0 in 0.0 W/m2 CLR
23:45 12.8 °F 7.7 °F 1030.4 in NW 18.5 mph 18.5 mph 71 % 0.0 in 0.0 W/m2 CLR
23:47 12.8 °F 7.7 °F 1030.4 in NW 20.4 mph 20.4 mph 71 % 0.0 in 0.0 W/m2 CLR
23:50 12.8 °F 7.7 °F 1030.4 in WNW 18.5 mph 18.5 mph 71 % 0.0 in 0.0 W/m2 CLR
23:55 12.8 °F 7.7 °F 1030.4 in WNW 16.7 mph 16.7 mph 71 % 0.0 in 0.0 W/m2 CLR
23:56 12.8 °F 7.7 °F 1030.4 in NW 13.0 mph 13.0 mph 71 % 0.0 in 0.0 W/m2 CLR
23:58 12.8 °F 7.7 °F 1030.4 in WNW 20.4 mph 20.4 mph 71 % 0.0 in 0.0 W/m2 CLR
Lo Temps de Massalio
Compliments of Weather Underground - 1.5 mb